sensor_id;sensor_type;location;lat;lon;timestamp;P1;durP1;ratioP1;P2;durP2;ratioP2
21122;SDS011;10719;48.130;11.630;2022-07-05T00:00:17;10.38;;;3.97;;
21122;SDS011;10719;48.130;11.630;2022-07-05T00:02:43;11.23;;;3.80;;
21122;SDS011;10719;48.130;11.630;2022-07-05T00:05:08;8.95;;;3.95;;
21122;SDS011;10719;48.130;11.630;2022-07-05T00:07:34;10.15;;;3.90;;
21122;SDS011;10719;48.130;11.630;2022-07-05T00:10:00;6.20;;;3.10;;
21122;SDS011;10719;48.130;11.630;2022-07-05T00:12:29;7.13;;;3.00;;
21122;SDS011;10719;48.130;11.630;2022-07-05T00:14:59;7.00;;;3.00;;
21122;SDS011;10719;48.130;11.630;2022-07-05T00:17:25;8.65;;;3.00;;
21122;SDS011;10719;48.130;11.630;2022-07-05T00:19:51;4.18;;;2.50;;
21122;SDS011;10719;48.130;11.630;2022-07-05T00:22:17;4.90;;;2.70;;
21122;SDS011;10719;48.130;11.630;2022-07-05T00:24:43;7.95;;;3.00;;
21122;SDS011;10719;48.130;11.630;2022-07-05T00:27:08;8.60;;;3.22;;
21122;SDS011;10719;48.130;11.630;2022-07-05T00:29:34;7.28;;;2.60;;
21122;SDS011;10719;48.130;11.630;2022-07-05T00:32:00;7.40;;;3.28;;
21122;SDS011;10719;48.130;11.630;2022-07-05T00:34:25;6.93;;;2.80;;
21122;SDS011;10719;48.130;11.630;2022-07-05T00:36:51;7.18;;;2.72;;
21122;SDS011;10719;48.130;11.630;2022-07-05T00:39:17;6.90;;;2.92;;
21122;SDS011;10719;48.130;11.630;2022-07-05T00:41:42;6.85;;;2.80;;
21122;SDS011;10719;48.130;11.630;2022-07-05T00:44:09;7.03;;;2.47;;
21122;SDS011;10719;48.130;11.630;2022-07-05T00:46:36;4.45;;;2.40;;
21122;SDS011;10719;48.130;11.630;2022-07-05T00:49:03;5.85;;;2.60;;
21122;SDS011;10719;48.130;11.630;2022-07-05T00:51:30;6.75;;;2.60;;
21122;SDS011;10719;48.130;11.630;2022-07-05T00:53:59;6.50;;;2.80;;
21122;SDS011;10719;48.130;11.630;2022-07-05T00:56:25;7.60;;;2.80;;
21122;SDS011;10719;48.130;11.630;2022-07-05T00:58:52;9.43;;;2.75;;
21122;SDS011;10719;48.130;11.630;2022-07-05T01:01:17;6.38;;;2.90;;
21122;SDS011;10719;48.130;11.630;2022-07-05T01:03:44;11.32;;;3.42;;
21122;SDS011;10719;48.130;11.630;2022-07-05T01:06:10;7.10;;;2.92;;
21122;SDS011;10719;48.130;11.630;2022-07-05T01:08:38;6.03;;;2.70;;
21122;SDS011;10719;48.130;11.630;2022-07-05T01:11:05;10.48;;;3.55;;
21122;SDS011;10719;48.130;11.630;2022-07-05T01:13:31;8.10;;;2.80;;
21122;SDS011;10719;48.130;11.630;2022-07-05T01:15:56;7.93;;;3.85;;
21122;SDS011;10719;48.130;11.630;2022-07-05T01:18:23;15.40;;;4.18;;
21122;SDS011;10719;48.130;11.630;2022-07-05T01:20:49;11.77;;;3.72;;
21122;SDS011;10719;48.130;11.630;2022-07-05T01:23:16;10.27;;;4.82;;
21122;SDS011;10719;48.130;11.630;2022-07-05T01:25:43;10.93;;;5.95;;
21122;SDS011;10719;48.130;11.630;2022-07-05T01:28:10;16.15;;;9.55;;
21122;SDS011;10719;48.130;11.630;2022-07-05T01:30:36;20.80;;;14.82;;
21122;SDS011;10719;48.130;11.630;2022-07-05T01:33:04;25.33;;;17.08;;
21122;SDS011;10719;48.130;11.630;2022-07-05T01:35:30;22.42;;;16.88;;
21122;SDS011;10719;48.130;11.630;2022-07-05T01:37:56;20.15;;;16.13;;
21122;SDS011;10719;48.130;11.630;2022-07-05T01:40:21;14.80;;;8.32;;
21122;SDS011;10719;48.130;11.630;2022-07-05T01:42:47;9.90;;;5.25;;
21122;SDS011;10719;48.130;11.630;2022-07-05T01:45:13;12.45;;;4.63;;
21122;SDS011;10719;48.130;11.630;2022-07-05T01:47:59;9.85;;;4.53;;
21122;SDS011;10719;48.130;11.630;2022-07-05T01:50:26;9.43;;;4.55;;
21122;SDS011;10719;48.130;11.630;2022-07-05T01:52:56;10.00;;;4.35;;
21122;SDS011;10719;48.130;11.630;2022-07-05T01:55:23;10.00;;;4.75;;
21122;SDS011;10719;48.130;11.630;2022-07-05T01:57:49;9.27;;;5.00;;
21122;SDS011;10719;48.130;11.630;2022-07-05T02:00:15;11.70;;;4.38;;
21122;SDS011;10719;48.130;11.630;2022-07-05T02:02:41;10.00;;;4.80;;
21122;SDS011;10719;48.130;11.630;2022-07-05T02:05:07;9.18;;;4.60;;
21122;SDS011;10719;48.130;11.630;2022-07-05T02:07:33;9.18;;;4.50;;
21122;SDS011;10719;48.130;11.630;2022-07-05T02:09:58;10.23;;;4.80;;
21122;SDS011;10719;48.130;11.630;2022-07-05T02:12:24;8.05;;;4.57;;
21122;SDS011;10719;48.130;11.630;2022-07-05T02:14:50;10.40;;;5.20;;
21122;SDS011;10719;48.130;11.630;2022-07-05T02:17:15;10.45;;;4.60;;
21122;SDS011;10719;48.130;11.630;2022-07-05T02:19:41;10.80;;;4.82;;
21122;SDS011;10719;48.130;11.630;2022-07-05T02:22:06;9.27;;;4.50;;
21122;SDS011;10719;48.130;11.630;2022-07-05T02:24:32;9.63;;;4.60;;
21122;SDS011;10719;48.130;11.630;2022-07-05T02:26:58;10.45;;;4.47;;
21122;SDS011;10719;48.130;11.630;2022-07-05T02:29:24;11.13;;;4.90;;
21122;SDS011;10719;48.130;11.630;2022-07-05T02:31:50;8.98;;;4.18;;
21122;SDS011;10719;48.130;11.630;2022-07-05T02:34:15;7.68;;;4.13;;
21122;SDS011;10719;48.130;11.630;2022-07-05T02:36:41;8.32;;;4.25;;
21122;SDS011;10719;48.130;11.630;2022-07-05T02:39:06;8.73;;;4.47;;
21122;SDS011;10719;48.130;11.630;2022-07-05T02:41:32;8.10;;;4.25;;
21122;SDS011;10719;48.130;11.630;2022-07-05T02:43:58;8.85;;;4.30;;
21122;SDS011;10719;48.130;11.630;2022-07-05T02:46:23;10.52;;;4.68;;
21122;SDS011;10719;48.130;11.630;2022-07-05T02:48:50;8.65;;;4.10;;
21122;SDS011;10719;48.130;11.630;2022-07-05T02:51:17;9.00;;;4.25;;
21122;SDS011;10719;48.130;11.630;2022-07-05T02:53:43;9.80;;;4.40;;
21122;SDS011;10719;48.130;11.630;2022-07-05T02:56:09;10.07;;;4.28;;
21122;SDS011;10719;48.130;11.630;2022-07-05T02:58:35;7.28;;;3.80;;
21122;SDS011;10719;48.130;11.630;2022-07-05T03:01:02;7.38;;;3.88;;
21122;SDS011;10719;48.130;11.630;2022-07-05T03:03:28;8.32;;;4.20;;
21122;SDS011;10719;48.130;11.630;2022-07-05T03:05:53;10.50;;;4.28;;
21122;SDS011;10719;48.130;11.630;2022-07-05T03:08:19;9.35;;;4.03;;
21122;SDS011;10719;48.130;11.630;2022-07-05T03:10:44;7.03;;;3.70;;
21122;SDS011;10719;48.130;11.630;2022-07-05T03:13:10;7.70;;;3.42;;
21122;SDS011;10719;48.130;11.630;2022-07-05T03:15:36;9.15;;;3.45;;
21122;SDS011;10719;48.130;11.630;2022-07-05T03:18:02;8.45;;;3.95;;
21122;SDS011;10719;48.130;11.630;2022-07-05T03:20:27;6.60;;;3.25;;
21122;SDS011;10719;48.130;11.630;2022-07-05T03:22:53;6.18;;;3.53;;
21122;SDS011;10719;48.130;11.630;2022-07-05T03:25:19;7.93;;;3.53;;
21122;SDS011;10719;48.130;11.630;2022-07-05T03:27:44;8.10;;;3.75;;
21122;SDS011;10719;48.130;11.630;2022-07-05T03:30:10;6.55;;;3.28;;
21122;SDS011;10719;48.130;11.630;2022-07-05T03:32:36;6.13;;;3.25;;
21122;SDS011;10719;48.130;11.630;2022-07-05T03:35:02;10.13;;;4.00;;
21122;SDS011;10719;48.130;11.630;2022-07-05T03:37:28;5.55;;;3.05;;
21122;SDS011;10719;48.130;11.630;2022-07-05T03:39:54;11.13;;;3.47;;
21122;SDS011;10719;48.130;11.630;2022-07-05T03:42:19;7.93;;;3.45;;
21122;SDS011;10719;48.130;11.630;2022-07-05T03:44:45;6.22;;;3.28;;
21122;SDS011;10719;48.130;11.630;2022-07-05T03:47:10;6.82;;;3.25;;
21122;SDS011;10719;48.130;11.630;2022-07-05T03:49:36;8.48;;;3.35;;
21122;SDS011;10719;48.130;11.630;2022-07-05T03:52:01;7.43;;;3.63;;
21122;SDS011;10719;48.130;11.630;2022-07-05T03:54:27;6.93;;;3.50;;
21122;SDS011;10719;48.130;11.630;2022-07-05T03:56:53;6.22;;;3.47;;
21122;SDS011;10719;48.130;11.630;2022-07-05T03:59:18;8.65;;;3.50;;
21122;SDS011;10719;48.130;11.630;2022-07-05T04:01:44;7.05;;;3.20;;
21122;SDS011;10719;48.130;11.630;2022-07-05T04:04:09;8.65;;;3.80;;
21122;SDS011;10719;48.130;11.630;2022-07-05T04:06:35;9.75;;;4.07;;
21122;SDS011;10719;48.130;11.630;2022-07-05T04:09:01;7.75;;;3.90;;
21122;SDS011;10719;48.130;11.630;2022-07-05T04:11:26;8.55;;;4.10;;
21122;SDS011;10719;48.130;11.630;2022-07-05T04:13:52;8.10;;;3.83;;
21122;SDS011;10719;48.130;11.630;2022-07-05T04:16:17;8.32;;;3.83;;
21122;SDS011;10719;48.130;11.630;2022-07-05T04:18:43;10.20;;;4.13;;
21122;SDS011;10719;48.130;11.630;2022-07-05T04:21:09;7.97;;;3.90;;
21122;SDS011;10719;48.130;11.630;2022-07-05T04:23:34;7.03;;;3.50;;
21122;SDS011;10719;48.130;11.630;2022-07-05T04:26:00;10.75;;;3.88;;
21122;SDS011;10719;48.130;11.630;2022-07-05T04:28:27;8.15;;;3.50;;
21122;SDS011;10719;48.130;11.630;2022-07-05T04:30:55;9.80;;;3.75;;
21122;SDS011;10719;48.130;11.630;2022-07-05T04:33:23;6.40;;;3.30;;
21122;SDS011;10719;48.130;11.630;2022-07-05T04:35:49;8.25;;;3.90;;
21122;SDS011;10719;48.130;11.630;2022-07-05T04:38:15;8.52;;;3.70;;
21122;SDS011;10719;48.130;11.630;2022-07-05T04:40:40;15.25;;;4.00;;
21122;SDS011;10719;48.130;11.630;2022-07-05T04:43:06;6.07;;;3.03;;
21122;SDS011;10719;48.130;11.630;2022-07-05T04:45:32;8.63;;;3.38;;
21122;SDS011;10719;48.130;11.630;2022-07-05T04:47:58;7.53;;;3.42;;
21122;SDS011;10719;48.130;11.630;2022-07-05T04:50:24;6.03;;;3.28;;
21122;SDS011;10719;48.130;11.630;2022-07-05T04:52:49;8.05;;;3.55;;
21122;SDS011;10719;48.130;11.630;2022-07-05T04:55:15;8.60;;;3.40;;
21122;SDS011;10719;48.130;11.630;2022-07-05T04:57:41;6.80;;;3.55;;
21122;SDS011;10719;48.130;11.630;2022-07-05T05:00:10;7.90;;;4.22;;
21122;SDS011;10719;48.130;11.630;2022-07-05T05:02:37;9.45;;;4.43;;
21122;SDS011;10719;48.130;11.630;2022-07-05T05:05:03;9.73;;;4.50;;
21122;SDS011;10719;48.130;11.630;2022-07-05T05:07:29;10.38;;;3.90;;
21122;SDS011;10719;48.130;11.630;2022-07-05T05:09:55;9.00;;;3.53;;
21122;SDS011;10719;48.130;11.630;2022-07-05T05:12:21;9.45;;;4.32;;
21122;SDS011;10719;48.130;11.630;2022-07-05T05:14:47;8.35;;;3.88;;
21122;SDS011;10719;48.130;11.630;2022-07-05T05:17:13;7.28;;;3.20;;
21122;SDS011;10719;48.130;11.630;2022-07-05T05:19:39;8.40;;;3.08;;
21122;SDS011;10719;48.130;11.630;2022-07-05T05:22:04;8.00;;;3.10;;
21122;SDS011;10719;48.130;11.630;2022-07-05T05:24:30;9.75;;;3.10;;
21122;SDS011;10719;48.130;11.630;2022-07-05T05:26:56;9.27;;;3.58;;
21122;SDS011;10719;48.130;11.630;2022-07-05T05:29:22;7.88;;;3.03;;
21122;SDS011;10719;48.130;11.630;2022-07-05T05:31:47;9.57;;;3.58;;
21122;SDS011;10719;48.130;11.630;2022-07-05T05:34:13;5.93;;;3.17;;
21122;SDS011;10719;48.130;11.630;2022-07-05T05:36:39;9.05;;;3.80;;
21122;SDS011;10719;48.130;11.630;2022-07-05T05:39:04;7.65;;;3.30;;
21122;SDS011;10719;48.130;11.630;2022-07-05T05:41:30;6.07;;;2.78;;
21122;SDS011;10719;48.130;11.630;2022-07-05T05:43:55;9.68;;;3.53;;
21122;SDS011;10719;48.130;11.630;2022-07-05T05:46:21;5.88;;;3.30;;
21122;SDS011;10719;48.130;11.630;2022-07-05T05:48:47;9.00;;;3.40;;
21122;SDS011;10719;48.130;11.630;2022-07-05T05:51:12;8.73;;;3.72;;
21122;SDS011;10719;48.130;11.630;2022-07-05T05:53:38;9.32;;;4.28;;
21122;SDS011;10719;48.130;11.630;2022-07-05T05:56:04;12.13;;;3.90;;
21122;SDS011;10719;48.130;11.630;2022-07-05T05:58:30;6.68;;;3.42;;
21122;SDS011;10719;48.130;11.630;2022-07-05T06:00:55;8.95;;;4.20;;
21122;SDS011;10719;48.130;11.630;2022-07-05T06:03:22;8.30;;;4.28;;
21122;SDS011;10719;48.130;11.630;2022-07-05T06:05:49;10.48;;;4.03;;
21122;SDS011;10719;48.130;11.630;2022-07-05T06:08:15;10.65;;;4.68;;
21122;SDS011;10719;48.130;11.630;2022-07-05T06:10:41;14.23;;;5.13;;
21122;SDS011;10719;48.130;11.630;2022-07-05T06:13:08;12.93;;;4.90;;
21122;SDS011;10719;48.130;11.630;2022-07-05T06:15:36;13.95;;;5.63;;
21122;SDS011;10719;48.130;11.630;2022-07-05T06:18:03;15.05;;;5.30;;
21122;SDS011;10719;48.130;11.630;2022-07-05T06:20:30;11.65;;;4.95;;
21122;SDS011;10719;48.130;11.630;2022-07-05T06:22:58;11.18;;;5.55;;
21122;SDS011;10719;48.130;11.630;2022-07-05T06:25:24;13.38;;;5.80;;
21122;SDS011;10719;48.130;11.630;2022-07-05T06:27:59;10.90;;;4.82;;
21122;SDS011;10719;48.130;11.630;2022-07-05T06:30:30;13.30;;;6.00;;
21122;SDS011;10719;48.130;11.630;2022-07-05T06:32:57;10.57;;;5.75;;
21122;SDS011;10719;48.130;11.630;2022-07-05T06:35:23;13.20;;;5.78;;
21122;SDS011;10719;48.130;11.630;2022-07-05T06:40:34;10.70;;;5.18;;
21122;SDS011;10719;48.130;11.630;2022-07-05T06:43:08;11.75;;;5.07;;
21122;SDS011;10719;48.130;11.630;2022-07-05T06:45:35;10.93;;;5.00;;
21122;SDS011;10719;48.130;11.630;2022-07-05T06:48:01;12.30;;;4.80;;
21122;SDS011;10719;48.130;11.630;2022-07-05T06:50:29;13.57;;;5.25;;
21122;SDS011;10719;48.130;11.630;2022-07-05T06:52:56;9.38;;;4.55;;
21122;SDS011;10719;48.130;11.630;2022-07-05T06:55:23;9.23;;;4.22;;
21122;SDS011;10719;48.130;11.630;2022-07-05T06:57:49;7.88;;;3.63;;
21122;SDS011;10719;48.130;11.630;2022-07-05T07:00:24;10.93;;;3.97;;
21122;SDS011;10719;48.130;11.630;2022-07-05T07:02:49;9.68;;;3.97;;
21122;SDS011;10719;48.130;11.630;2022-07-05T07:05:15;8.75;;;4.07;;
21122;SDS011;10719;48.130;11.630;2022-07-05T07:07:41;10.32;;;4.65;;
21122;SDS011;10719;48.130;11.630;2022-07-05T07:10:25;9.80;;;4.22;;
21122;SDS011;10719;48.130;11.630;2022-07-05T07:12:50;7.85;;;3.85;;
21122;SDS011;10719;48.130;11.630;2022-07-05T07:15:16;9.32;;;3.75;;
21122;SDS011;10719;48.130;11.630;2022-07-05T07:17:42;12.57;;;3.88;;
21122;SDS011;10719;48.130;11.630;2022-07-05T07:20:08;10.55;;;4.25;;
21122;SDS011;10719;48.130;11.630;2022-07-05T07:22:34;9.63;;;3.53;;
21122;SDS011;10719;48.130;11.630;2022-07-05T07:24:59;9.35;;;3.22;;
21122;SDS011;10719;48.130;11.630;2022-07-05T07:27:25;8.52;;;3.50;;
21122;SDS011;10719;48.130;11.630;2022-07-05T07:29:51;10.20;;;3.58;;
21122;SDS011;10719;48.130;11.630;2022-07-05T07:32:16;9.20;;;3.55;;
21122;SDS011;10719;48.130;11.630;2022-07-05T07:34:43;12.32;;;3.80;;
21122;SDS011;10719;48.130;11.630;2022-07-05T07:37:09;7.72;;;3.72;;
21122;SDS011;10719;48.130;11.630;2022-07-05T07:39:38;8.50;;;3.40;;
21122;SDS011;10719;48.130;11.630;2022-07-05T07:42:04;10.65;;;3.53;;
21122;SDS011;10719;48.130;11.630;2022-07-05T07:44:31;9.38;;;3.45;;
21122;SDS011;10719;48.130;11.630;2022-07-05T07:46:56;8.48;;;3.65;;
21122;SDS011;10719;48.130;11.630;2022-07-05T07:49:22;9.90;;;3.22;;
21122;SDS011;10719;48.130;11.630;2022-07-05T07:51:47;8.55;;;3.70;;
21122;SDS011;10719;48.130;11.630;2022-07-05T07:54:13;9.27;;;2.92;;
21122;SDS011;10719;48.130;11.630;2022-07-05T07:56:39;13.88;;;3.50;;
21122;SDS011;10719;48.130;11.630;2022-07-05T07:59:05;9.55;;;2.70;;
21122;SDS011;10719;48.130;11.630;2022-07-05T08:01:31;10.15;;;3.08;;
21122;SDS011;10719;48.130;11.630;2022-07-05T08:03:56;5.78;;;2.10;;
21122;SDS011;10719;48.130;11.630;2022-07-05T08:06:22;5.75;;;2.20;;
21122;SDS011;10719;48.130;11.630;2022-07-05T08:08:48;4.00;;;1.77;;
21122;SDS011;10719;48.130;11.630;2022-07-05T08:11:13;6.60;;;2.10;;
21122;SDS011;10719;48.130;11.630;2022-07-05T08:13:40;9.55;;;2.40;;
21122;SDS011;10719;48.130;11.630;2022-07-05T08:16:07;8.02;;;2.13;;
21122;SDS011;10719;48.130;11.630;2022-07-05T08:18:34;6.32;;;2.42;;
21122;SDS011;10719;48.130;11.630;2022-07-05T08:21:18;6.22;;;2.33;;
21122;SDS011;10719;48.130;11.630;2022-07-05T08:23:56;7.00;;;1.90;;
21122;SDS011;10719;48.130;11.630;2022-07-05T08:26:32;3.78;;;2.00;;
21122;SDS011;10719;48.130;11.630;2022-07-05T08:28:58;6.68;;;1.67;;
21122;SDS011;10719;48.130;11.630;2022-07-05T08:31:26;3.75;;;1.58;;
21122;SDS011;10719;48.130;11.630;2022-07-05T08:33:53;6.93;;;1.75;;
21122;SDS011;10719;48.130;11.630;2022-07-05T08:36:19;12.65;;;2.50;;
21122;SDS011;10719;48.130;11.630;2022-07-05T08:38:44;10.15;;;2.30;;
21122;SDS011;10719;48.130;11.630;2022-07-05T08:41:10;4.80;;;1.75;;
21122;SDS011;10719;48.130;11.630;2022-07-05T08:43:37;6.55;;;2.15;;
21122;SDS011;10719;48.130;11.630;2022-07-05T08:46:05;7.20;;;2.80;;
21122;SDS011;10719;48.130;11.630;2022-07-05T08:48:35;6.47;;;2.38;;
21122;SDS011;10719;48.130;11.630;2022-07-05T08:51:11;7.95;;;2.75;;
21122;SDS011;10719;48.130;11.630;2022-07-05T08:53:39;8.82;;;1.88;;
21122;SDS011;10719;48.130;11.630;2022-07-05T08:56:09;9.23;;;2.15;;
21122;SDS011;10719;48.130;11.630;2022-07-05T08:58:37;5.30;;;1.90;;
21122;SDS011;10719;48.130;11.630;2022-07-05T09:01:04;9.30;;;1.80;;
21122;SDS011;10719;48.130;11.630;2022-07-05T09:03:43;3.17;;;1.40;;
21122;SDS011;10719;48.130;11.630;2022-07-05T09:06:10;5.20;;;1.58;;
21122;SDS011;10719;48.130;11.630;2022-07-05T09:08:38;7.85;;;1.90;;
21122;SDS011;10719;48.130;11.630;2022-07-05T09:11:06;3.53;;;1.20;;
21122;SDS011;10719;48.130;11.630;2022-07-05T09:13:34;5.50;;;1.58;;
21122;SDS011;10719;48.130;11.630;2022-07-05T09:16:01;6.25;;;1.70;;
21122;SDS011;10719;48.130;11.630;2022-07-05T09:18:41;4.40;;;1.20;;
21122;SDS011;10719;48.130;11.630;2022-07-05T09:21:21;4.85;;;1.42;;
21122;SDS011;10719;48.130;11.630;2022-07-05T09:24:02;5.97;;;1.98;;
21122;SDS011;10719;48.130;11.630;2022-07-05T09:29:00;4.85;;;1.30;;
21122;SDS011;10719;48.130;11.630;2022-07-05T09:31:30;3.63;;;1.50;;
21122;SDS011;10719;48.130;11.630;2022-07-05T09:34:07;3.80;;;1.70;;
21122;SDS011;10719;48.130;11.630;2022-07-05T09:39:16;3.35;;;1.45;;
21122;SDS011;10719;48.130;11.630;2022-07-05T09:41:42;2.50;;;1.40;;
21122;SDS011;10719;48.130;11.630;2022-07-05T09:44:08;5.38;;;1.80;;
21122;SDS011;10719;48.130;11.630;2022-07-05T09:46:33;3.75;;;1.40;;
21122;SDS011;10719;48.130;11.630;2022-07-05T09:48:59;4.25;;;1.70;;
21122;SDS011;10719;48.130;11.630;2022-07-05T09:51:25;4.20;;;1.50;;
21122;SDS011;10719;48.130;11.630;2022-07-05T09:53:51;9.52;;;3.40;;
21122;SDS011;10719;48.130;11.630;2022-07-05T09:56:20;5.30;;;1.98;;
21122;SDS011;10719;48.130;11.630;2022-07-05T09:58:46;4.18;;;1.60;;
21122;SDS011;10719;48.130;11.630;2022-07-05T10:01:25;6.63;;;1.90;;
21122;SDS011;10719;48.130;11.630;2022-07-05T10:03:56;6.20;;;1.48;;
21122;SDS011;10719;48.130;11.630;2022-07-05T10:06:29;7.22;;;1.60;;
21122;SDS011;10719;48.130;11.630;2022-07-05T10:08:57;4.88;;;1.80;;
21122;SDS011;10719;48.130;11.630;2022-07-05T10:11:23;4.88;;;1.77;;
21122;SDS011;10719;48.130;11.630;2022-07-05T10:13:52;10.85;;;1.50;;
21122;SDS011;10719;48.130;11.630;2022-07-05T10:16:20;3.05;;;1.67;;
21122;SDS011;10719;48.130;11.630;2022-07-05T10:18:47;4.70;;;1.40;;
21122;SDS011;10719;48.130;11.630;2022-07-05T10:21:16;5.55;;;1.67;;
21122;SDS011;10719;48.130;11.630;2022-07-05T10:23:43;6.00;;;1.60;;
21122;SDS011;10719;48.130;11.630;2022-07-05T10:26:14;6.43;;;1.80;;
21122;SDS011;10719;48.130;11.630;2022-07-05T10:28:40;6.72;;;1.40;;
21122;SDS011;10719;48.130;11.630;2022-07-05T10:31:10;4.95;;;1.70;;
21122;SDS011;10719;48.130;11.630;2022-07-05T10:33:40;2.17;;;1.20;;
21122;SDS011;10719;48.130;11.630;2022-07-05T10:36:05;7.70;;;1.70;;
21122;SDS011;10719;48.130;11.630;2022-07-05T10:38:36;3.47;;;1.65;;
21122;SDS011;10719;48.130;11.630;2022-07-05T10:41:04;6.43;;;1.48;;
21122;SDS011;10719;48.130;11.630;2022-07-05T10:43:33;2.38;;;1.10;;
21122;SDS011;10719;48.130;11.630;2022-07-05T10:45:59;4.45;;;1.38;;
21122;SDS011;10719;48.130;11.630;2022-07-05T10:48:25;3.75;;;1.58;;
21122;SDS011;10719;48.130;11.630;2022-07-05T10:53:25;4.55;;;1.48;;
21122;SDS011;10719;48.130;11.630;2022-07-05T10:56:13;3.40;;;1.40;;
21122;SDS011;10719;48.130;11.630;2022-07-05T10:58:40;3.67;;;1.50;;
21122;SDS011;10719;48.130;11.630;2022-07-05T11:06:30;2.50;;;1.33;;
21122;SDS011;10719;48.130;11.630;2022-07-05T11:11:31;1.92;;;1.30;;
21122;SDS011;10719;48.130;11.630;2022-07-05T11:13:57;8.18;;;1.55;;
21122;SDS011;10719;48.130;11.630;2022-07-05T11:16:28;5.07;;;1.35;;
21122;SDS011;10719;48.130;11.630;2022-07-05T11:21:32;4.72;;;1.42;;
21122;SDS011;10719;48.130;11.630;2022-07-05T11:26:45;5.30;;;1.33;;
21122;SDS011;10719;48.130;11.630;2022-07-05T11:32:07;5.43;;;1.30;;
21122;SDS011;10719;48.130;11.630;2022-07-05T11:34:35;3.33;;;1.00;;
21122;SDS011;10719;48.130;11.630;2022-07-05T11:39:43;1.45;;;1.00;;
21122;SDS011;10719;48.130;11.630;2022-07-05T11:42:10;4.53;;;1.30;;
21122;SDS011;10719;48.130;11.630;2022-07-05T11:44:36;3.83;;;1.25;;
21122;SDS011;10719;48.130;11.630;2022-07-05T11:47:05;4.72;;;1.30;;
21122;SDS011;10719;48.130;11.630;2022-07-05T11:49:31;5.97;;;1.30;;
21122;SDS011;10719;48.130;11.630;2022-07-05T11:52:01;5.07;;;1.50;;
21122;SDS011;10719;48.130;11.630;2022-07-05T11:54:28;3.35;;;1.33;;
21122;SDS011;10719;48.130;11.630;2022-07-05T11:56:55;5.00;;;1.38;;
21122;SDS011;10719;48.130;11.630;2022-07-05T11:59:21;3.72;;;1.08;;
21122;SDS011;10719;48.130;11.630;2022-07-05T12:01:48;4.03;;;1.15;;
21122;SDS011;10719;48.130;11.630;2022-07-05T12:04:25;4.22;;;1.08;;
21122;SDS011;10719;48.130;11.630;2022-07-05T12:06:51;4.72;;;1.10;;
21122;SDS011;10719;48.130;11.630;2022-07-05T12:09:26;4.90;;;1.35;;
21122;SDS011;10719;48.130;11.630;2022-07-05T12:12:16;3.25;;;1.15;;
21122;SDS011;10719;48.130;11.630;2022-07-05T12:15:10;2.47;;;1.00;;
21122;SDS011;10719;48.130;11.630;2022-07-05T12:17:37;5.30;;;1.00;;
21122;SDS011;10719;48.130;11.630;2022-07-05T12:20:04;2.33;;;0.95;;
21122;SDS011;10719;48.130;11.630;2022-07-05T12:22:32;2.83;;;1.20;;
21122;SDS011;10719;48.130;11.630;2022-07-05T12:25:00;3.58;;;1.00;;
21122;SDS011;10719;48.130;11.630;2022-07-05T12:27:29;2.28;;;0.88;;
21122;SDS011;10719;48.130;11.630;2022-07-05T12:29:57;6.72;;;0.88;;
21122;SDS011;10719;48.130;11.630;2022-07-05T12:32:23;3.10;;;0.80;;
21122;SDS011;10719;48.130;11.630;2022-07-05T12:34:48;3.35;;;1.00;;
21122;SDS011;10719;48.130;11.630;2022-07-05T12:37:20;2.10;;;1.02;;
21122;SDS011;10719;48.130;11.630;2022-07-05T12:39:50;5.60;;;1.27;;
21122;SDS011;10719;48.130;11.630;2022-07-05T12:45:11;2.33;;;1.10;;
21122;SDS011;10719;48.130;11.630;2022-07-05T12:47:48;4.47;;;1.10;;
21122;SDS011;10719;48.130;11.630;2022-07-05T12:50:18;4.70;;;1.10;;
21122;SDS011;10719;48.130;11.630;2022-07-05T12:56:00;4.10;;;1.15;;
21122;SDS011;10719;48.130;11.630;2022-07-05T12:58:47;6.40;;;1.42;;
21122;SDS011;10719;48.130;11.630;2022-07-05T13:01:28;4.10;;;1.08;;
21122;SDS011;10719;48.130;11.630;2022-07-05T13:04:03;3.33;;;1.30;;
21122;SDS011;10719;48.130;11.630;2022-07-05T13:06:39;3.85;;;1.10;;
21122;SDS011;10719;48.130;11.630;2022-07-05T13:09:16;5.82;;;1.10;;
21122;SDS011;10719;48.130;11.630;2022-07-05T13:12:14;3.03;;;1.00;;
21122;SDS011;10719;48.130;11.630;2022-07-05T13:14:46;2.80;;;1.33;;
21122;SDS011;10719;48.130;11.630;2022-07-05T13:17:14;4.20;;;1.17;;
21122;SDS011;10719;48.130;11.630;2022-07-05T13:19:42;1.27;;;0.85;;
21122;SDS011;10719;48.130;11.630;2022-07-05T13:22:09;2.22;;;0.90;;
21122;SDS011;10719;48.130;11.630;2022-07-05T13:24:34;5.07;;;1.23;;
21122;SDS011;10719;48.130;11.630;2022-07-05T13:27:00;4.57;;;1.20;;
21122;SDS011;10719;48.130;11.630;2022-07-05T13:29:27;4.60;;;1.10;;
21122;SDS011;10719;48.130;11.630;2022-07-05T13:31:53;5.13;;;0.90;;
21122;SDS011;10719;48.130;11.630;2022-07-05T13:34:19;4.65;;;1.35;;
21122;SDS011;10719;48.130;11.630;2022-07-05T13:36:48;5.28;;;1.20;;
21122;SDS011;10719;48.130;11.630;2022-07-05T13:39:14;3.88;;;1.15;;
21122;SDS011;10719;48.130;11.630;2022-07-05T13:41:40;4.28;;;1.00;;
21122;SDS011;10719;48.130;11.630;2022-07-05T13:44:06;6.30;;;0.80;;
21122;SDS011;10719;48.130;11.630;2022-07-05T13:46:31;4.07;;;1.30;;
21122;SDS011;10719;48.130;11.630;2022-07-05T13:48:57;2.10;;;0.77;;
21122;SDS011;10719;48.130;11.630;2022-07-05T13:51:22;5.05;;;1.10;;
21122;SDS011;10719;48.130;11.630;2022-07-05T13:53:48;3.15;;;1.35;;
21122;SDS011;10719;48.130;11.630;2022-07-05T13:56:14;2.67;;;1.08;;
21122;SDS011;10719;48.130;11.630;2022-07-05T13:58:40;3.65;;;0.90;;
21122;SDS011;10719;48.130;11.630;2022-07-05T14:01:06;2.92;;;0.90;;
21122;SDS011;10719;48.130;11.630;2022-07-05T14:03:32;3.20;;;1.00;;
21122;SDS011;10719;48.130;11.630;2022-07-05T14:05:58;2.20;;;0.80;;
21122;SDS011;10719;48.130;11.630;2022-07-05T14:08:23;2.70;;;1.17;;
21122;SDS011;10719;48.130;11.630;2022-07-05T14:10:50;2.70;;;0.90;;
21122;SDS011;10719;48.130;11.630;2022-07-05T14:13:18;4.55;;;1.10;;
21122;SDS011;10719;48.130;11.630;2022-07-05T14:15:44;3.40;;;0.73;;
21122;SDS011;10719;48.130;11.630;2022-07-05T14:18:11;4.43;;;0.95;;
21122;SDS011;10719;48.130;11.630;2022-07-05T14:20:37;4.38;;;1.27;;
21122;SDS011;10719;48.130;11.630;2022-07-05T14:23:03;2.78;;;0.82;;
21122;SDS011;10719;48.130;11.630;2022-07-05T14:25:29;6.18;;;1.60;;
21122;SDS011;10719;48.130;11.630;2022-07-05T14:27:55;4.10;;;0.95;;
21122;SDS011;10719;48.130;11.630;2022-07-05T14:30:21;4.90;;;1.25;;
21122;SDS011;10719;48.130;11.630;2022-07-05T14:32:51;3.88;;;1.00;;
21122;SDS011;10719;48.130;11.630;2022-07-05T14:35:17;2.65;;;0.95;;
21122;SDS011;10719;48.130;11.630;2022-07-05T14:37:43;2.83;;;0.90;;
21122;SDS011;10719;48.130;11.630;2022-07-05T14:40:09;3.20;;;1.10;;
21122;SDS011;10719;48.130;11.630;2022-07-05T14:42:35;6.18;;;1.08;;
21122;SDS011;10719;48.130;11.630;2022-07-05T14:45:00;5.55;;;1.13;;
21122;SDS011;10719;48.130;11.630;2022-07-05T14:47:26;3.58;;;1.05;;
21122;SDS011;10719;48.130;11.630;2022-07-05T14:49:52;3.38;;;0.95;;
21122;SDS011;10719;48.130;11.630;2022-07-05T14:52:19;6.72;;;0.90;;
21122;SDS011;10719;48.130;11.630;2022-07-05T14:54:45;2.15;;;1.20;;
21122;SDS011;10719;48.130;11.630;2022-07-05T14:57:11;3.53;;;1.08;;
21122;SDS011;10719;48.130;11.630;2022-07-05T14:59:36;3.60;;;1.17;;
21122;SDS011;10719;48.130;11.630;2022-07-05T15:02:02;2.35;;;1.10;;
21122;SDS011;10719;48.130;11.630;2022-07-05T15:04:30;3.42;;;0.98;;
21122;SDS011;10719;48.130;11.630;2022-07-05T15:06:59;4.25;;;1.08;;